Time;durP1;ratioP1;P1;durP2;ratioP2;P2;SDS_P1;SDS_P2;PMS_P1;PMS_P2;Temp;Humidity;BMP_temperature;BMP_pressure;BME280_temperature;BME280_humidity;BME280_pressure;Samples;Min_cycle;Max_cycle;Signal;HPM_P1;HPM_P2
2021/10/27 00:00:23;;;;;;;9.40;5.28;;;3.20;64.00;;;;;;4959833;28;20042;-78
2021/10/27 00:02:49;;;;;;;10.25;5.60;;;3.20;64.30;;;;;;4959627;28;20027;-78
2021/10/27 00:05:15;;;;;;;10.55;5.60;;;3.10;64.10;;;;;;4943488;28;20085;-79
2021/10/27 00:07:41;;;;;;;8.77;5.25;;;3.10;64.20;;;;;;4976915;28;20031;-80
2021/10/27 00:10:08;;;;;;;9.82;5.30;;;3.00;64.70;;;;;;4959301;28;20441;-79
2021/10/27 00:12:34;;;;;;;9.27;4.85;;;3.00;64.50;;;;;;4976640;28;20027;-78
2021/10/27 00:14:59;;;;;;;9.23;4.88;;;3.00;64.60;;;;;;4959382;28;20031;-79
2021/10/27 00:17:25;;;;;;;8.82;4.82;;;3.00;64.60;;;;;;4976891;28;20026;-79
2021/10/27 00:19:51;;;;;;;9.80;4.60;;;3.00;64.50;;;;;;4959133;28;20066;-79
2021/10/27 00:22:17;;;;;;;8.32;4.70;;;2.90;64.40;;;;;;4959113;28;20050;-79
2021/10/27 00:24:43;;;;;;;7.82;4.63;;;2.80;64.50;;;;;;4959698;28;20023;-79
2021/10/27 00:27:09;;;;;;;7.63;4.47;;;2.80;65.10;;;;;;4959308;28;20066;-79
2021/10/27 00:29:35;;;;;;;9.55;4.57;;;2.70;64.70;;;;;;4959274;28;20465;-79
2021/10/27 00:32:01;;;;;;;11.48;4.85;;;2.70;64.80;;;;;;4977086;28;20031;-78
2021/10/27 00:34:27;;;;;;;9.85;4.53;;;2.70;64.90;;;;;;4976383;28;20030;-78
2021/10/27 00:36:52;;;;;;;9.55;5.10;;;2.60;65.00;;;;;;4959066;28;20031;-79
2021/10/27 00:39:18;;;;;;;9.63;5.00;;;2.60;65.40;;;;;;4958736;28;20043;-79
2021/10/27 00:41:45;;;;;;;10.68;4.60;;;2.50;65.30;;;;;;4958808;28;20023;-80
2021/10/27 00:44:37;;;;;;;8.60;4.80;;;2.50;65.90;;;;;;4958544;28;20029;-79
2021/10/27 00:47:11;;;;;;;7.45;4.15;;;2.40;65.50;;;;;;4956286;28;20034;-78
2021/10/27 00:49:38;;;;;;;9.75;4.65;;;2.40;65.70;;;;;;4958474;28;20031;-79
2021/10/27 00:52:09;;;;;;;8.75;4.60;;;2.40;65.70;;;;;;4958662;28;20027;-79
2021/10/27 00:54:35;;;;;;;9.20;4.82;;;2.30;65.60;;;;;;4976244;28;20050;-79
2021/10/27 00:57:02;;;;;;;8.15;4.65;;;2.30;65.90;;;;;;4976168;28;20461;-79
2021/10/27 00:59:28;;;;;;;8.60;5.10;;;2.30;65.90;;;;;;4958453;28;20129;-80
2021/10/27 01:01:55;;;;;;;8.75;5.32;;;2.30;66.00;;;;;;4976012;28;20355;-79
2021/10/27 01:04:22;;;;;;;12.13;6.32;;;2.30;66.10;;;;;;4976207;28;20519;-78
2021/10/27 01:06:49;;;;;;;9.32;5.07;;;2.30;66.30;;;;;;4976223;28;20035;-79
2021/10/27 01:09:15;;;;;;;10.63;5.70;;;2.30;66.50;;;;;;4958008;28;20034;-79
2021/10/27 01:11:41;;;;;;;11.82;5.20;;;2.20;66.50;;;;;;4976052;28;20461;-78
2021/10/27 01:14:08;;;;;;;9.60;5.18;;;2.20;66.50;;;;;;4975864;28;20081;-79
2021/10/27 01:16:35;;;;;;;9.30;5.55;;;2.20;66.40;;;;;;4958350;28;20480;-79
2021/10/27 01:19:01;;;;;;;9.45;5.25;;;2.20;66.60;;;;;;4958174;28;20030;-79
2021/10/27 01:21:29;;;;;;;14.10;5.93;;;2.20;67.00;;;;;;4958787;28;20449;-80
2021/10/27 01:23:59;;;;;;;10.77;5.60;;;2.20;67.10;;;;;;4975624;28;20046;-80
2021/10/27 01:26:25;;;;;;;11.35;5.45;;;2.20;67.00;;;;;;4955482;28;20031;-78
2021/10/27 01:28:51;;;;;;;10.05;5.32;;;2.20;66.80;;;;;;4958163;28;20073;-79
2021/10/27 01:31:17;;;;;;;11.10;5.80;;;2.20;67.40;;;;;;4957816;28;20077;-80
2021/10/27 01:33:43;;;;;;;10.50;5.63;;;2.20;67.20;;;;;;4957582;28;20377;-80
2021/10/27 01:36:10;;;;;;;11.18;6.10;;;2.10;67.80;;;;;;4975372;28;20031;-79
2021/10/27 01:38:36;;;;;;;10.40;5.85;;;2.10;67.60;;;;;;4975224;28;20139;-80
2021/10/27 01:41:03;;;;;;;11.57;6.72;;;2.10;68.10;;;;;;4957926;28;20031;-79
2021/10/27 01:43:29;;;;;;;10.88;6.30;;;2.00;68.00;;;;;;4957948;28;20117;-79
2021/10/27 01:45:55;;;;;;;19.00;7.60;;;2.00;68.40;;;;;;4957813;28;20058;-79
2021/10/27 01:48:21;;;;;;;12.80;6.63;;;2.00;68.80;;;;;;4958337;28;20123;-79
2021/10/27 01:50:47;;;;;;;12.77;7.03;;;2.00;68.80;;;;;;4957803;28;20031;-79
2021/10/27 01:53:14;;;;;;;12.68;6.68;;;2.00;69.00;;;;;;4957670;28;20053;-79
2021/10/27 01:55:41;;;;;;;12.52;6.85;;;2.00;69.20;;;;;;4974262;28;20027;-80
2021/10/27 01:58:07;;;;;;;13.23;6.78;;;2.00;69.40;;;;;;4957970;28;20033;-80
2021/10/27 02:00:32;;;;;;;12.80;6.53;;;2.00;69.20;;;;;;4974967;28;20030;-78
2021/10/27 02:02:58;;;;;;;12.45;6.63;;;2.00;69.20;;;;;;4974790;28;20031;-78
2021/10/27 02:05:24;;;;;;;14.30;7.25;;;2.00;69.50;;;;;;4974944;28;20031;-78
2021/10/27 02:07:49;;;;;;;13.57;6.72;;;2.00;69.50;;;;;;4957682;28;20027;-78
2021/10/27 02:10:15;;;;;;;14.40;7.90;;;2.00;69.50;;;;;;4957336;28;20038;-79
2021/10/27 02:12:42;;;;;;;13.20;7.65;;;2.10;69.70;;;;;;4974901;28;20516;-78
2021/10/27 02:15:10;;;;;;;13.35;7.80;;;2.00;69.90;;;;;;4957987;28;20034;-79
2021/10/27 02:17:36;;;;;;;16.20;8.50;;;2.10;70.00;;;;;;4974995;28;20030;-79
2021/10/27 02:20:02;;;;;;;14.50;7.97;;;2.10;70.10;;;;;;4957064;28;20041;-79
2021/10/27 02:22:28;;;;;;;14.82;7.93;;;2.10;70.10;;;;;;4957022;28;20034;-78
2021/10/27 02:24:53;;;;;;;13.82;7.32;;;2.10;70.30;;;;;;4974794;28;20088;-79
2021/10/27 02:27:19;;;;;;;13.60;7.88;;;2.10;70.10;;;;;;4974831;28;20023;-78
2021/10/27 02:29:45;;;;;;;17.45;8.30;;;2.00;70.10;;;;;;4974783;28;20060;-78
2021/10/27 02:32:11;;;;;;;13.95;7.78;;;2.00;70.50;;;;;;4974553;28;20038;-79
2021/10/27 02:34:36;;;;;;;12.65;7.45;;;2.00;70.30;;;;;;4974608;28;20029;-79
2021/10/27 02:37:03;;;;;;;13.20;8.15;;;2.00;70.50;;;;;;4957124;28;20039;-79
2021/10/27 02:39:29;;;;;;;13.65;7.30;;;2.00;70.60;;;;;;4958237;28;20031;-79
2021/10/27 02:41:55;;;;;;;13.77;7.35;;;2.00;70.40;;;;;;4958289;28;20039;-78
2021/10/27 02:44:21;;;;;;;12.02;6.75;;;2.00;70.30;;;;;;4974468;28;20023;-80
2021/10/27 02:46:47;;;;;;;13.45;7.05;;;2.00;70.70;;;;;;4957081;28;20027;-80
2021/10/27 02:49:13;;;;;;;12.93;7.32;;;2.00;70.50;;;;;;4974352;28;20041;-79
2021/10/27 02:51:38;;;;;;;15.52;7.82;;;2.00;70.70;;;;;;4974731;28;20019;-79
2021/10/27 02:54:04;;;;;;;15.43;8.43;;;1.90;70.80;;;;;;4974166;28;20047;-79
2021/10/27 02:56:30;;;;;;;14.57;7.95;;;1.90;71.20;;;;;;4974477;28;20037;-79
2021/10/27 02:58:55;;;;;;;13.98;7.15;;;1.90;70.90;;;;;;4956737;28;20034;-79
2021/10/27 03:01:21;;;;;;;12.57;6.95;;;1.90;71.30;;;;;;4974895;28;20464;-78
2021/10/27 03:03:48;;;;;;;13.05;6.97;;;1.90;71.20;;;;;;4974706;28;20038;-79
2021/10/27 03:06:14;;;;;;;15.68;7.32;;;1.80;71.30;;;;;;4974813;28;20110;-77
2021/10/27 03:08:40;;;;;;;13.05;7.07;;;1.80;71.30;;;;;;4960760;28;20072;-78
2021/10/27 03:11:05;;;;;;;20.48;8.05;;;1.80;71.10;;;;;;4961241;28;20035;-78
2021/10/27 03:13:32;;;;;;;15.30;7.88;;;1.80;71.30;;;;;;4977329;28;20030;-79
2021/10/27 03:15:57;;;;;;;14.73;8.15;;;1.70;71.60;;;;;;4961109;28;20122;-79
2021/10/27 03:18:23;;;;;;;15.25;8.07;;;1.80;71.60;;;;;;4960644;28;20113;-79
2021/10/27 03:20:49;;;;;;;12.90;7.60;;;1.70;71.80;;;;;;4960533;28;20545;-79
2021/10/27 03:23:15;;;;;;;13.55;7.53;;;1.80;71.70;;;;;;4960617;28;20023;-79
2021/10/27 03:25:41;;;;;;;13.98;7.60;;;1.70;71.50;;;;;;4961345;28;20066;-78
2021/10/27 03:28:07;;;;;;;14.10;7.60;;;1.60;71.60;;;;;;4980252;28;20022;-78
2021/10/27 03:30:33;;;;;;;13.25;7.40;;;1.60;71.80;;;;;;4961874;28;20031;-78
2021/10/27 03:32:58;;;;;;;13.10;7.07;;;1.60;72.00;;;;;;4979847;28;20476;-77
2021/10/27 03:35:24;;;;;;;15.18;8.02;;;1.60;72.00;;;;;;4962220;28;20113;-80
2021/10/27 03:37:50;;;;;;;12.50;7.68;;;1.50;72.00;;;;;;4979139;28;20035;-79
2021/10/27 03:40:16;;;;;;;15.80;7.43;;;1.40;72.20;;;;;;4960746;28;20039;-79
2021/10/27 03:42:44;;;;;;;15.27;8.63;;;1.40;72.40;;;;;;4960348;28;20123;-79
2021/10/27 03:45:09;;;;;;;14.23;7.28;;;1.40;72.90;;;;;;4960027;28;20030;-78
2021/10/27 03:47:36;;;;;;;13.05;7.05;;;1.40;72.40;;;;;;4960049;28;20126;-79
2021/10/27 03:50:03;;;;;;;14.65;7.75;;;1.30;72.90;;;;;;4959792;28;20083;-79
2021/10/27 03:52:31;;;;;;;14.95;7.97;;;1.30;73.40;;;;;;4959349;28;20062;-79
2021/10/27 03:54:58;;;;;;;14.15;8.02;;;1.30;73.60;;;;;;4959790;28;20089;-79
2021/10/27 03:57:23;;;;;;;16.10;8.25;;;1.30;73.30;;;;;;4959904;28;20378;-80
2021/10/27 03:59:49;;;;;;;15.18;8.75;;;1.30;73.70;;;;;;4976928;28;20034;-79
2021/10/27 04:02:14;;;;;;;21.27;10.35;;;1.30;73.60;;;;;;4959812;28;20461;-80
2021/10/27 04:04:40;;;;;;;18.05;9.02;;;1.30;74.00;;;;;;4959889;28;20510;-79
2021/10/27 04:07:06;;;;;;;20.52;9.10;;;1.30;74.20;;;;;;4959664;28;20362;-79
2021/10/27 04:09:31;;;;;;;17.65;9.20;;;1.30;74.10;;;;;;4959423;28;20121;-79
2021/10/27 04:11:57;;;;;;;19.17;9.73;;;1.30;74.70;;;;;;4976694;28;20030;-79
2021/10/27 04:14:23;;;;;;;19.10;9.40;;;1.20;74.90;;;;;;4976745;28;20453;-78
2021/10/27 04:16:49;;;;;;;18.27;8.70;;;1.20;74.70;;;;;;4959354;28;20027;-78
2021/10/27 04:19:14;;;;;;;13.90;8.25;;;1.30;74.90;;;;;;4942223;28;20050;-78
2021/10/27 04:21:40;;;;;;;15.15;8.80;;;1.20;75.40;;;;;;4959299;28;20081;-78
2021/10/27 04:24:06;;;;;;;18.42;8.77;;;1.30;75.40;;;;;;4959130;28;20023;-79
2021/10/27 04:26:32;;;;;;;17.55;8.95;;;1.30;75.40;;;;;;4958960;28;20029;-78
2021/10/27 04:28:58;;;;;;;18.23;8.15;;;1.30;75.40;;;;;;4959562;28;20034;-79
2021/10/27 04:31:24;;;;;;;12.80;7.57;;;1.40;75.60;;;;;;4976603;28;20035;-79
2021/10/27 04:33:50;;;;;;;17.65;8.63;;;1.40;75.70;;;;;;4958829;28;20022;-79
2021/10/27 04:36:16;;;;;;;16.73;8.45;;;1.40;75.90;;;;;;4942892;28;20086;-80
2021/10/27 04:38:42;;;;;;;15.90;8.13;;;1.40;76.20;;;;;;4958730;28;20062;-80
2021/10/27 04:41:08;;;;;;;14.82;8.85;;;1.40;76.00;;;;;;4959177;28;20023;-79
2021/10/27 04:43:34;;;;;;;16.75;8.65;;;1.40;76.40;;;;;;4958733;28;20030;-78
2021/10/27 04:46:00;;;;;;;17.65;8.63;;;1.40;76.60;;;;;;4958692;28;20030;-79
2021/10/27 04:48:25;;;;;;;18.98;8.35;;;1.50;77.00;;;;;;4958572;28;20034;-80
2021/10/27 04:50:51;;;;;;;16.02;8.02;;;1.50;77.20;;;;;;4958454;28;20038;-77
2021/10/27 04:53:18;;;;;;;18.10;8.75;;;1.50;77.30;;;;;;4942403;28;20660;-79
2021/10/27 04:55:46;;;;;;;16.83;9.10;;;1.60;77.20;;;;;;4958463;28;20474;-78
2021/10/27 04:58:12;;;;;;;16.75;9.40;;;1.60;77.60;;;;;;4958477;28;20031;-78
2021/10/27 05:00:39;;;;;;;15.45;8.57;;;1.60;77.70;;;;;;4975591;28;20042;-77
2021/10/27 05:03:05;;;;;;;15.73;9.27;;;1.70;77.30;;;;;;4958326;28;20033;-81
2021/10/27 05:05:34;;;;;;;17.10;9.73;;;1.70;77.50;;;;;;4943230;28;20035;-82
2021/10/27 05:08:02;;;;;;;22.15;11.00;;;1.70;77.80;;;;;;4975515;28;20417;-80
2021/10/27 05:10:28;;;;;;;19.95;10.75;;;1.70;78.40;;;;;;4958560;28;20362;-80
2021/10/27 05:12:53;;;;;;;22.63;10.82;;;1.80;78.40;;;;;;4958653;28;20050;-82
2021/10/27 05:15:19;;;;;;;22.58;11.90;;;1.80;78.60;;;;;;4975930;28;20461;-82
2021/10/27 05:17:45;;;;;;;19.67;10.30;;;1.80;78.60;;;;;;4975725;28;20458;-83
2021/10/27 05:20:11;;;;;;;20.52;10.43;;;1.90;78.20;;;;;;4958130;28;20031;-82
2021/10/27 05:22:37;;;;;;;15.77;9.48;;;1.90;78.60;;;;;;4958076;28;20039;-82
2021/10/27 05:25:02;;;;;;;17.05;9.35;;;1.90;78.60;;;;;;4957634;28;20386;-82
2021/10/27 05:27:30;;;;;;;42.53;23.48;;;2.00;78.80;;;;;;4958201;28;20457;-84
2021/10/27 05:29:57;;;;;;;32.17;17.05;;;2.00;78.80;;;;;;4960302;28;20034;-90
2021/10/27 05:32:24;;;;;;;23.08;13.23;;;2.20;78.90;;;;;;4958182;28;20034;-84
2021/10/27 05:34:51;;;;;;;18.92;10.90;;;2.30;78.40;;;;;;4975507;28;20030;-83
2021/10/27 05:37:17;;;;;;;16.77;9.27;;;2.40;78.20;;;;;;4958047;28;20466;-84
2021/10/27 05:39:43;;;;;;;16.10;8.15;;;2.50;77.60;;;;;;4975186;28;20158;-84
2021/10/27 05:42:13;;;;;;;16.63;8.73;;;2.60;77.30;;;;;;4957741;28;20046;-86
2021/10/27 05:44:40;;;;;;;17.45;9.02;;;2.70;77.30;;;;;;4957917;28;20046;-83
2021/10/27 05:47:05;;;;;;;16.88;9.20;;;2.70;77.50;;;;;;4974917;28;20030;-81
2021/10/27 05:54:59;;;;;;;107.40;57.22;;;2.80;77.60;;;;;;4974229;28;20019;-84
2021/10/27 05:57:35;;;;;;;38.13;17.33;;;3.00;78.20;;;;;;4975182;28;20049;-86
2021/10/27 06:00:01;;;;;;;24.80;12.60;;;3.10;78.10;;;;;;4955822;28;20644;-82
2021/10/27 06:02:27;;;;;;;19.88;11.38;;;3.10;78.50;;;;;;4954702;28;20133;-83
2021/10/27 06:04:58;;;;;;;21.42;11.18;;;3.20;78.50;;;;;;4957055;28;20180;-82
2021/10/27 06:07:24;;;;;;;21.77;11.30;;;3.20;78.90;;;;;;4974282;28;20113;-82
2021/10/27 06:09:50;;;;;;;23.85;12.18;;;3.30;79.10;;;;;;4957113;28;20508;-82
2021/10/27 06:12:18;;;;;;;20.92;10.15;;;3.20;79.50;;;;;;4972231;28;20038;-82
2021/10/27 06:14:45;;;;;;;20.33;10.18;;;3.30;79.70;;;;;;4972245;28;20475;-82
2021/10/27 06:17:11;;;;;;;17.80;9.60;;;3.40;79.70;;;;;;4973851;28;20042;-82
2021/10/27 06:19:37;;;;;;;17.23;9.95;;;3.40;79.60;;;;;;4972021;28;20393;-82
2021/10/27 06:22:03;;;;;;;15.05;8.77;;;3.50;79.60;;;;;;4955334;28;20030;-83
2021/10/27 06:24:30;;;;;;;15.98;9.13;;;3.50;79.70;;;;;;4954979;28;20034;-81
2021/10/27 06:26:57;;;;;;;15.90;8.73;;;3.60;79.60;;;;;;4955088;28;20026;-82
2021/10/27 06:29:29;;;;;;;15.50;8.30;;;3.70;79.30;;;;;;4955401;28;20118;-82
2021/10/27 06:32:09;;;;;;;17.20;9.07;;;3.80;79.00;;;;;;4972595;28;20027;-82
2021/10/27 06:34:38;;;;;;;13.65;8.00;;;3.90;78.90;;;;;;4957007;28;20026;-81
2021/10/27 06:37:32;;;;;;;15.25;8.25;;;4.00;78.70;;;;;;4974400;28;20050;-82
2021/10/27 06:48:10;;;;;;;15.85;9.32;;;4.40;78.20;;;;;;4978622;28;20046;-82
2021/10/27 06:50:36;;;;;;;23.25;9.70;;;4.50;77.90;;;;;;4960968;28;20035;-82
2021/10/27 06:53:01;;;;;;;17.38;9.18;;;4.60;77.90;;;;;;4960552;28;20497;-82
2021/10/27 06:55:27;;;;;;;13.57;8.43;;;4.70;77.70;;;;;;4978175;28;20089;-82
2021/10/27 06:57:54;;;;;;;16.15;8.93;;;4.80;77.60;;;;;;4960893;28;20027;-82
2021/10/27 07:16:15;;;;;;;15.07;8.60;;;5.40;76.60;;;;;;4978275;28;20429;-82
2021/10/27 07:18:40;;;;;;;15.02;8.73;;;5.50;76.40;;;;;;4978577;28;20026;-81
2021/10/27 07:21:06;;;;;;;16.95;8.88;;;5.50;76.30;;;;;;4977845;28;20480;-83
2021/10/27 07:23:33;;;;;;;17.42;9.25;;;5.50;76.50;;;;;;4960907;28;20062;-83
2021/10/27 07:25:59;;;;;;;14.30;8.30;;;5.50;76.50;;;;;;4960315;28;20027;-83
2021/10/27 07:28:26;;;;;;;15.57;8.43;;;5.50;76.40;;;;;;4977695;28;20034;-83
2021/10/27 07:30:54;;;;;;;19.45;8.40;;;5.50;77.50;;;;;;4977630;28;20130;-82
2021/10/27 07:33:20;;;;;;;16.70;8.75;;;5.60;76.80;;;;;;4977305;28;20433;-82
2021/10/27 07:41:34;;;;;;;14.45;7.97;;;5.60;76.90;;;;;;4918021;29;20414;-82
2021/10/27 07:44:03;;;;;;;13.70;8.13;;;5.70;77.10;;;;;;4943946;28;20035;-81
2021/10/27 07:46:29;;;;;;;15.30;8.10;;;5.70;76.90;;;;;;4959904;28;20062;-82
2021/10/27 07:48:55;;;;;;;16.13;9.18;;;5.80;77.00;;;;;;4977645;28;20038;-82
2021/10/27 07:51:20;;;;;;;15.82;8.10;;;5.80;77.20;;;;;;4961381;28;20477;-82
2021/10/27 07:53:46;;;;;;;14.70;8.25;;;5.90;77.10;;;;;;4958308;28;20429;-82
2021/10/27 07:56:14;;;;;;;14.23;9.07;;;6.00;76.80;;;;;;4976954;28;20081;-82
2021/10/27 07:58:40;;;;;;;19.42;10.32;;;6.00;76.70;;;;;;4959386;28;20026;-83
2021/10/27 08:01:06;;;;;;;18.35;9.85;;;6.10;76.90;;;;;;4960358;28;20477;-82
2021/10/27 08:03:32;;;;;;;17.58;9.88;;;6.10;77.10;;;;;;4976829;28;20027;-82
2021/10/27 08:06:07;;;;;;;16.02;9.52;;;6.20;77.10;;;;;;4977149;28;20038;-83
2021/10/27 08:08:33;;;;;;;15.68;9.25;;;6.30;76.80;;;;;;4959618;28;20026;-82
2021/10/27 08:10:59;;;;;;;13.15;8.40;;;6.40;76.50;;;;;;4959465;28;20030;-84
2021/10/27 08:13:25;;;;;;;15.10;8.60;;;6.50;76.00;;;;;;4977117;28;20026;-82
2021/10/27 08:15:52;;;;;;;14.15;8.88;;;6.50;75.90;;;;;;4959750;28;20054;-83
2021/10/27 08:18:18;;;;;;;16.23;8.77;;;6.60;76.00;;;;;;4976997;28;20039;-83
2021/10/27 08:20:45;;;;;;;12.00;7.55;;;6.60;75.90;;;;;;4959528;28;20129;-82
2021/10/27 08:23:13;;;;;;;21.08;10.80;;;6.70;75.90;;;;;;4959125;28;20027;-83
2021/10/27 08:25:47;;;;;;;18.80;9.85;;;6.80;75.80;;;;;;4959184;28;20058;-83
2021/10/27 08:28:16;;;;;;;16.77;9.85;;;6.80;75.80;;;;;;4976565;28;20038;-82
2021/10/27 08:30:50;;;;;;;15.82;9.05;;;6.90;75.70;;;;;;4959093;28;20469;-84
2021/10/27 08:33:21;;;;;;;19.52;10.02;;;7.00;75.80;;;;;;4976536;28;20027;-83
2021/10/27 08:35:47;;;;;;;;;;;7.20;75.70;;;;;;4976887;28;20026;-82
2021/10/27 08:38:13;;;;;;;13.77;8.13;;;7.30;75.00;;;;;;4975941;28;19905;-83
2021/10/27 08:40:43;;;;;;;15.95;9.27;;;7.40;74.50;;;;;;4976167;28;20039;-82
2021/10/27 08:43:11;;;;;;;16.90;10.15;;;7.50;74.30;;;;;;4959241;28;20023;-83
2021/10/27 08:45:40;;;;;;;14.82;9.50;;;7.60;74.10;;;;;;4976074;28;20081;-81
2021/10/27 08:48:11;;;;;;;14.85;8.77;;;7.70;73.70;;;;;;4958884;28;20593;-83
2021/10/27 08:50:39;;;;;;;15.43;9.32;;;7.80;73.70;;;;;;4975987;28;20035;-82
2021/10/27 08:53:05;;;;;;;18.65;9.18;;;7.80;73.20;;;;;;4958845;28;20050;-83
2021/10/27 08:55:32;;;;;;;19.50;9.32;;;7.90;73.20;;;;;;4975794;28;20485;-83
2021/10/27 08:57:58;;;;;;;18.85;9.10;;;7.90;73.10;;;;;;4976259;28;20114;-82
2021/10/27 09:00:30;;;;;;;15.98;9.32;;;7.90;73.20;;;;;;4976187;28;20037;-82
2021/10/27 09:03:07;;;;;;;18.35;9.75;;;8.00;73.20;;;;;;4959587;28;20121;-82
2021/10/27 09:05:49;;;;;;;13.90;9.05;;;8.00;73.20;;;;;;4958524;28;20046;-82
2021/10/27 09:34:00;;;;;;;16.45;8.57;;;9.50;70.90;;;;;;4915807;29;20059;-83
2021/10/27 10:06:47;;;;;;;14.73;8.05;;;16.30;55.30;;;;;;4975328;28;20442;-83
2021/10/27 10:09:14;;;;;;;13.85;7.15;;;16.80;54.80;;;;;;4958830;28;20031;-83
2021/10/27 10:11:41;;;;;;;12.07;7.20;;;17.30;54.20;;;;;;4957823;28;20022;-84
2021/10/27 10:14:09;;;;;;;12.25;7.22;;;17.80;52.30;;;;;;4975849;28;20061;-83
2021/10/27 10:16:52;;;;;;;12.05;7.50;;;18.10;51.60;;;;;;4974682;28;20027;-84
2021/10/27 10:19:20;;;;;;;12.80;6.93;;;18.30;50.60;;;;;;4975520;28;20096;-82
2021/10/27 10:21:48;;;;;;;12.68;7.40;;;18.50;50.60;;;;;;4957631;28;20123;-86
2021/10/27 10:24:17;;;;;;;12.48;7.30;;;18.70;50.10;;;;;;4957175;28;20388;-84
2021/10/27 10:26:44;;;;;;;11.43;6.85;;;18.90;49.50;;;;;;4975098;28;20076;-86
2021/10/27 10:29:10;;;;;;;10.52;6.78;;;19.20;49.00;;;;;;4957674;28;20030;-85
2021/10/27 10:31:38;;;;;;;12.55;7.47;;;19.40;48.10;;;;;;4956998;28;20097;-84
2021/10/27 10:34:45;;;;;;;14.13;6.45;;;19.50;47.30;;;;;;4957695;28;20031;-86
2021/10/27 10:37:54;;;;;;;10.02;6.03;;;19.50;45.30;;;;;;4975082;28;20027;-83
2021/10/27 10:40:33;;;;;;;9.00;5.60;;;19.50;46.40;;;;;;4950489;28;20560;-84
2021/10/27 10:45:59;;;;;;;10.07;5.57;;;20.00;46.60;;;;;;4974603;28;20482;-84
2021/10/27 11:23:17;;;;;;;7.47;4.75;;;20.90;42.90;;;;;;4974652;28;20038;-83
2021/10/27 11:26:07;;;;;;;6.53;4.30;;;20.80;43.10;;;;;;4974756;28;20050;-82
2021/10/27 11:42:41;;;;;;;6.75;4.10;;;21.50;42.10;;;;;;4977275;28;20031;-84
2021/10/27 11:48:00;;;;;;;5.90;3.83;;;21.70;41.50;;;;;;4977406;28;20039;-84
2021/10/27 11:50:38;;;;;;;7.22;3.97;;;21.70;41.40;;;;;;4977124;28;20035;-84
2021/10/27 11:53:06;;;;;;;7.40;4.00;;;21.60;41.50;;;;;;4977445;28;20078;-81
2021/10/27 11:55:34;;;;;;;4.78;3.20;;;21.80;41.60;;;;;;4977380;28;20102;-84
2021/10/27 11:58:00;;;;;;;6.45;3.65;;;22.00;41.60;;;;;;4960914;28;20099;-83
2021/10/27 12:00:40;;;;;;;6.10;3.53;;;22.30;41.00;;;;;;4977321;28;20501;-84
2021/10/27 12:03:09;;;;;;;;;;;22.50;40.50;;;;;;4977393;28;20022;-84
2021/10/27 12:16:44;;;;;;;7.35;4.47;;;22.10;40.30;;;;;;4976851;28;20073;-84
2021/10/27 12:19:24;;;;;;;8.30;5.32;;;22.20;39.70;;;;;;4959155;28;20033;-84
2021/10/27 12:22:03;;;;;;;8.77;4.88;;;22.10;39.90;;;;;;4959972;28;20373;-84
2021/10/27 12:24:33;;;;;;;6.77;4.50;;;22.10;39.90;;;;;;4959622;28;20363;-85
2021/10/27 12:27:03;;;;;;;7.43;4.93;;;22.00;40.40;;;;;;4976507;28;20332;-85
2021/10/27 12:29:34;;;;;;;6.30;4.45;;;22.20;40.40;;;;;;4959197;28;20034;-84
2021/10/27 12:32:11;;;;;;;8.00;4.40;;;22.40;40.30;;;;;;4959201;28;20031;-84
2021/10/27 12:34:47;;;;;;;5.70;4.20;;;22.60;40.00;;;;;;4959312;28;20039;-84
2021/10/27 12:40:25;;;;;;;7.88;4.68;;;22.90;39.00;;;;;;4975412;28;20042;-84
2021/10/27 12:43:06;;;;;;;7.80;4.45;;;22.90;38.90;;;;;;4959234;28;20023;-83
2021/10/27 12:45:47;;;;;;;6.32;4.57;;;22.50;39.30;;;;;;4976407;28;20085;-84
2021/10/27 12:48:17;;;;;;;6.68;3.80;;;22.40;39.40;;;;;;4976185;28;20047;-83
2021/10/27 12:50:56;;;;;;;6.57;3.90;;;22.30;40.40;;;;;;4959219;28;20129;-84
2021/10/27 12:53:32;;;;;;;6.10;4.30;;;22.30;39.80;;;;;;4958621;28;20055;-84
2021/10/27 12:56:19;;;;;;;8.10;4.05;;;22.40;39.60;;;;;;4959133;28;20031;-83
2021/10/27 12:58:50;;;;;;;7.57;4.13;;;22.50;39.60;;;;;;4976204;28;20414;-83
2021/10/27 13:01:49;;;;;;;8.13;4.32;;;22.50;39.30;;;;;;4959426;28;20030;-81
2021/10/27 13:04:29;;;;;;;6.30;4.57;;;22.30;39.10;;;;;;4977559;28;20110;-83
2021/10/27 13:23:07;;;;;;;6.45;4.00;;;20.60;41.70;;;;;;4975657;28;20089;-83
2021/10/27 13:31:06;;;;;;;8.60;4.28;;;21.10;41.10;;;;;;4975562;28;20488;-82
2021/10/27 13:33:32;;;;;;;;;;;21.10;41.20;;;;;;4958589;28;20440;-82
2021/10/27 13:35:58;;;;;;;7.32;4.35;;;21.00;41.00;;;;;;4958076;28;19914;-83
2021/10/27 13:38:31;;;;;;;6.38;4.20;;;21.00;41.20;;;;;;4957614;28;20023;-82
2021/10/27 13:40:56;;;;;;;5.00;3.47;;;21.00;41.20;;;;;;4975006;28;20222;-83
2021/10/27 13:43:26;;;;;;;6.43;3.90;;;21.00;41.20;;;;;;4957881;28;20070;-83
2021/10/27 14:13:09;;;;;;;7.63;4.38;;;18.10;44.40;;;;;;4974793;28;20027;-84
2021/10/27 14:39:53;;;;;;;8.35;4.30;;;13.80;49.90;;;;;;4974321;28;20531;-83
2021/10/27 15:20:52;;;;;;;6.10;3.40;;;11.90;54.60;;;;;;4977922;28;20097;-85
2021/10/27 15:33:58;;;;;;;6.55;4.47;;;11.90;55.50;;;;;;4977638;28;20034;-82
2021/10/27 15:36:31;;;;;;;8.27;4.88;;;11.90;55.80;;;;;;4977985;28;20035;-82
2021/10/27 15:50:47;;;;;;;;;;;11.80;55.90;;;;;;4917589;29;20478;-84
2021/10/27 15:52:45;;;;;;;7.90;4.20;;;11.60;58.30;;;;;;4961725;28;19918;-85
2021/10/27 15:55:11;;;;;;;7.53;4.63;;;11.60;56.20;;;;;;4959854;28;20027;-82
2021/10/27 15:57:37;;;;;;;10.18;4.35;;;11.50;56.20;;;;;;4972593;28;20030;-87
2021/10/27 16:00:04;;;;;;;7.95;4.85;;;11.50;56.70;;;;;;4978789;28;20077;-84
2021/10/27 16:02:30;;;;;;;9.70;5.20;;;11.40;56.50;;;;;;4996421;28;20033;-84
2021/10/27 16:04:56;;;;;;;8.52;5.43;;;11.40;57.00;;;;;;4997011;28;20030;-84
2021/10/27 16:07:23;;;;;;;8.65;5.57;;;11.30;57.10;;;;;;4996617;28;20026;-83
2021/10/27 16:09:51;;;;;;;15.25;7.68;;;11.20;57.30;;;;;;4978977;28;20034;-82
2021/10/27 16:12:17;;;;;;;15.50;10.18;;;11.10;58.30;;;;;;4978793;28;20033;-83
2021/10/27 16:14:45;;;;;;;17.05;11.02;;;11.00;58.20;;;;;;4977822;28;20031;-84
2021/10/27 16:17:17;;;;;;;22.52;13.10;;;11.00;58.70;;;;;;4978745;28;20026;-84
2021/10/27 16:19:42;;;;;;;23.50;13.68;;;11.00;59.00;;;;;;4978421;28;20034;-84
2021/10/27 16:22:17;;;;;;;23.77;14.70;;;10.90;58.90;;;;;;4979528;28;20030;-82
2021/10/27 16:24:43;;;;;;;30.77;16.55;;;10.90;59.10;;;;;;4978874;28;20532;-81
2021/10/27 16:27:09;;;;;;;27.25;15.32;;;10.80;59.30;;;;;;4978827;28;20114;-83
2021/10/27 16:29:35;;;;;;;30.52;16.63;;;10.80;59.50;;;;;;4972609;28;20035;-84
2021/10/27 16:32:01;;;;;;;30.17;18.23;;;10.80;60.20;;;;;;4966488;28;20078;-84
2021/10/27 16:34:26;;;;;;;32.13;18.55;;;10.70;60.50;;;;;;4999841;28;20030;-84
2021/10/27 16:36:52;;;;;;;31.77;18.05;;;10.70;60.50;;;;;;4967559;28;20448;-85
2021/10/27 16:39:18;;;;;;;27.63;16.52;;;10.60;60.60;;;;;;4992860;28;20045;-87
2021/10/27 16:41:44;;;;;;;29.33;17.38;;;10.60;60.70;;;;;;5010984;28;20057;-85
2021/10/27 16:44:10;;;;;;;29.20;17.02;;;10.50;60.60;;;;;;4978667;28;20126;-84
2021/10/27 16:46:36;;;;;;;30.17;17.92;;;10.50;60.80;;;;;;4978551;28;20022;-86
2021/10/27 16:49:03;;;;;;;33.28;19.25;;;10.50;61.00;;;;;;4995503;28;20054;-86
2021/10/27 16:51:30;;;;;;;34.78;19.58;;;10.40;61.60;;;;;;4993518;28;20377;-84
2021/10/27 16:54:00;;;;;;;35.70;17.83;;;10.40;61.60;;;;;;5008084;28;20081;-84
2021/10/27 16:56:27;;;;;;;35.08;18.67;;;10.40;61.60;;;;;;4993268;28;20431;-84
2021/10/27 16:58:54;;;;;;;36.03;18.88;;;10.40;62.00;;;;;;4959880;28;20030;-84
2021/10/27 17:01:19;;;;;;;37.25;20.48;;;10.30;62.00;;;;;;4992756;28;20513;-84
2021/10/27 17:03:47;;;;;;;35.97;19.52;;;10.40;62.50;;;;;;4992834;28;20026;-84
2021/10/27 17:06:12;;;;;;;47.03;19.48;;;10.40;62.20;;;;;;5002178;28;20034;-82
2021/10/27 17:08:39;;;;;;;34.97;19.27;;;10.40;62.50;;;;;;4965837;28;20078;-85
2021/10/27 17:11:08;;;;;;;33.00;18.25;;;10.50;62.60;;;;;;4980903;28;20027;-85
2021/10/27 17:13:34;;;;;;;33.03;18.48;;;10.50;62.50;;;;;;4980050;28;20048;-84
2021/10/27 17:15:59;;;;;;;30.35;16.75;;;10.60;62.30;;;;;;4982364;28;20034;-84
2021/10/27 17:18:31;;;;;;;28.08;15.73;;;10.60;62.50;;;;;;4963068;28;20026;-84
2021/10/27 17:21:03;;;;;;;29.05;15.88;;;10.60;62.50;;;;;;4995650;28;20758;-87
2021/10/27 17:23:32;;;;;;;27.90;15.40;;;10.70;63.00;;;;;;4963312;28;20066;-85
2021/10/27 17:25:58;;;;;;;24.33;14.95;;;10.70;62.40;;;;;;4980829;28;20039;-85
2021/10/27 17:28:24;;;;;;;24.00;13.07;;;10.80;62.50;;;;;;4963034;28;20081;-85
2021/10/27 17:30:51;;;;;;;22.60;13.20;;;10.80;62.50;;;;;;4963988;28;20031;-83
2021/10/27 17:33:17;;;;;;;21.05;12.30;;;10.80;62.40;;;;;;4967824;28;20041;-87
2021/10/27 17:35:43;;;;;;;20.25;12.23;;;10.80;62.20;;;;;;4967582;28;20019;-85
2021/10/27 17:38:12;;;;;;;19.33;11.63;;;10.80;62.30;;;;;;4984538;28;20030;-87
2021/10/27 17:40:44;;;;;;;20.30;12.05;;;10.80;62.10;;;;;;4949252;28;20042;-85
2021/10/27 17:43:10;;;;;;;18.90;11.95;;;10.70;62.70;;;;;;4961683;28;20121;-88